sensor_id;sensor_type;location;lat;lon;timestamp;P1;durP1;ratioP1;P2;durP2;ratioP2
25637;SDS011;13496;51.040;13.680;2023-02-18T00:03:55;1.20;;;1.10;;
25637;SDS011;13496;51.040;13.680;2023-02-18T00:08:58;0.80;;;0.80;;
25637;SDS011;13496;51.040;13.680;2023-02-18T00:14:03;1.07;;;1.03;;
25637;SDS011;13496;51.040;13.680;2023-02-18T00:19:07;1.20;;;1.10;;
25637;SDS011;13496;51.040;13.680;2023-02-18T00:24:12;0.83;;;0.83;;
25637;SDS011;13496;51.040;13.680;2023-02-18T00:29:15;0.73;;;0.73;;
25637;SDS011;13496;51.040;13.680;2023-02-18T00:34:17;0.70;;;0.70;;
25637;SDS011;13496;51.040;13.680;2023-02-18T00:39:18;0.87;;;0.80;;
25637;SDS011;13496;51.040;13.680;2023-02-18T00:44:20;0.70;;;0.70;;
25637;SDS011;13496;51.040;13.680;2023-02-18T00:49:22;1.23;;;0.90;;
25637;SDS011;13496;51.040;13.680;2023-02-18T00:54:23;0.97;;;0.80;;
25637;SDS011;13496;51.040;13.680;2023-02-18T00:59:25;0.70;;;0.70;;
25637;SDS011;13496;51.040;13.680;2023-02-18T01:04:27;0.77;;;0.77;;
25637;SDS011;13496;51.040;13.680;2023-02-18T01:09:29;0.83;;;0.83;;
25637;SDS011;13496;51.040;13.680;2023-02-18T01:14:31;1.57;;;1.20;;
25637;SDS011;13496;51.040;13.680;2023-02-18T01:19:35;1.10;;;1.00;;
25637;SDS011;13496;51.040;13.680;2023-02-18T01:24:37;1.13;;;1.00;;
25637;SDS011;13496;51.040;13.680;2023-02-18T01:29:38;1.43;;;1.13;;
25637;SDS011;13496;51.040;13.680;2023-02-18T01:34:40;1.07;;;1.00;;
25637;SDS011;13496;51.040;13.680;2023-02-18T01:39:42;1.63;;;1.17;;
25637;SDS011;13496;51.040;13.680;2023-02-18T01:44:45;0.80;;;0.80;;
25637;SDS011;13496;51.040;13.680;2023-02-18T01:49:48;1.00;;;0.90;;
25637;SDS011;13496;51.040;13.680;2023-02-18T01:54:55;1.20;;;1.00;;
25637;SDS011;13496;51.040;13.680;2023-02-18T01:59:59;1.00;;;0.90;;
25637;SDS011;13496;51.040;13.680;2023-02-18T02:05:16;1.50;;;0.80;;
25637;SDS011;13496;51.040;13.680;2023-02-18T02:10:19;1.33;;;0.83;;
25637;SDS011;13496;51.040;13.680;2023-02-18T02:37:48;1.03;;;0.90;;
25637;SDS011;13496;51.040;13.680;2023-02-18T02:43:19;0.70;;;0.70;;
25637;SDS011;13496;51.040;13.680;2023-02-18T02:53:52;2.63;;;1.10;;
25637;SDS011;13496;51.040;13.680;2023-02-18T02:58:59;1.43;;;1.00;;
25637;SDS011;13496;51.040;13.680;2023-02-18T03:04:30;0.90;;;0.90;;
25637;SDS011;13496;51.040;13.680;2023-02-18T03:09:45;0.90;;;0.90;;
25637;SDS011;13496;51.040;13.680;2023-02-18T03:15:07;1.13;;;0.80;;
25637;SDS011;13496;51.040;13.680;2023-02-18T03:20:36;0.80;;;0.80;;
25637;SDS011;13496;51.040;13.680;2023-02-18T03:25:41;1.17;;;1.00;;
25637;SDS011;13496;51.040;13.680;2023-02-18T03:30:55;0.70;;;0.70;;
25637;SDS011;13496;51.040;13.680;2023-02-18T03:36:01;1.37;;;0.90;;
25637;SDS011;13496;51.040;13.680;2023-02-18T03:41:04;1.03;;;0.93;;
25637;SDS011;13496;51.040;13.680;2023-02-18T03:46:06;1.30;;;1.00;;
25637;SDS011;13496;51.040;13.680;2023-02-18T03:51:08;0.70;;;0.70;;
25637;SDS011;13496;51.040;13.680;2023-02-18T03:56:10;1.20;;;0.90;;
25637;SDS011;13496;51.040;13.680;2023-02-18T04:01:12;0.70;;;0.70;;
25637;SDS011;13496;51.040;13.680;2023-02-18T04:06:14;1.40;;;0.90;;
25637;SDS011;13496;51.040;13.680;2023-02-18T04:11:15;0.80;;;0.80;;
25637;SDS011;13496;51.040;13.680;2023-02-18T04:16:17;1.07;;;0.80;;
25637;SDS011;13496;51.040;13.680;2023-02-18T04:21:19;1.00;;;0.77;;
25637;SDS011;13496;51.040;13.680;2023-02-18T04:26:20;0.90;;;0.80;;
25637;SDS011;13496;51.040;13.680;2023-02-18T04:31:22;0.80;;;0.77;;
25637;SDS011;13496;51.040;13.680;2023-02-18T04:36:24;0.60;;;0.60;;
25637;SDS011;13496;51.040;13.680;2023-02-18T04:41:25;0.80;;;0.80;;
25637;SDS011;13496;51.040;13.680;2023-02-18T04:46:27;1.53;;;0.83;;
25637;SDS011;13496;51.040;13.680;2023-02-18T04:51:29;1.10;;;1.00;;
25637;SDS011;13496;51.040;13.680;2023-02-18T04:56:30;1.00;;;0.90;;
25637;SDS011;13496;51.040;13.680;2023-02-18T05:01:32;1.10;;;1.00;;
25637;SDS011;13496;51.040;13.680;2023-02-18T05:06:34;1.10;;;1.00;;
25637;SDS011;13496;51.040;13.680;2023-02-18T05:11:35;1.13;;;1.00;;
25637;SDS011;13496;51.040;13.680;2023-02-18T05:16:38;0.80;;;0.80;;
25637;SDS011;13496;51.040;13.680;2023-02-18T05:21:40;1.07;;;0.90;;
25637;SDS011;13496;51.040;13.680;2023-02-18T05:26:42;0.80;;;0.80;;
25637;SDS011;13496;51.040;13.680;2023-02-18T05:31:43;0.60;;;0.60;;
25637;SDS011;13496;51.040;13.680;2023-02-18T05:36:45;1.60;;;0.90;;
25637;SDS011;13496;51.040;13.680;2023-02-18T05:41:47;1.73;;;0.90;;
25637;SDS011;13496;51.040;13.680;2023-02-18T05:46:48;1.00;;;0.90;;
25637;SDS011;13496;51.040;13.680;2023-02-18T05:51:50;0.80;;;0.80;;
25637;SDS011;13496;51.040;13.680;2023-02-18T05:56:51;0.93;;;0.70;;
25637;SDS011;13496;51.040;13.680;2023-02-18T06:01:54;1.33;;;0.90;;
25637;SDS011;13496;51.040;13.680;2023-02-18T06:06:56;0.70;;;0.70;;
25637;SDS011;13496;51.040;13.680;2023-02-18T06:11:57;0.80;;;0.80;;
25637;SDS011;13496;51.040;13.680;2023-02-18T06:16:59;0.80;;;0.80;;
25637;SDS011;13496;51.040;13.680;2023-02-18T06:22:01;1.00;;;0.93;;
25637;SDS011;13496;51.040;13.680;2023-02-18T06:27:03;0.70;;;0.70;;
25637;SDS011;13496;51.040;13.680;2023-02-18T06:32:05;0.73;;;0.73;;
25637;SDS011;13496;51.040;13.680;2023-02-18T06:37:06;0.90;;;0.90;;
25637;SDS011;13496;51.040;13.680;2023-02-18T06:42:08;1.03;;;0.93;;
25637;SDS011;13496;51.040;13.680;2023-02-18T06:47:10;0.93;;;0.93;;
25637;SDS011;13496;51.040;13.680;2023-02-18T06:52:11;1.17;;;1.00;;
25637;SDS011;13496;51.040;13.680;2023-02-18T06:57:13;0.90;;;0.90;;
25637;SDS011;13496;51.040;13.680;2023-02-18T07:02:14;0.90;;;0.80;;
25637;SDS011;13496;51.040;13.680;2023-02-18T07:07:16;1.00;;;1.00;;
25637;SDS011;13496;51.040;13.680;2023-02-18T07:12:18;0.90;;;0.90;;
25637;SDS011;13496;51.040;13.680;2023-02-18T07:17:19;1.07;;;0.97;;
25637;SDS011;13496;51.040;13.680;2023-02-18T07:22:21;0.80;;;0.80;;
25637;SDS011;13496;51.040;13.680;2023-02-18T07:27:23;0.97;;;0.70;;
25637;SDS011;13496;51.040;13.680;2023-02-18T07:32:25;0.97;;;0.90;;
25637;SDS011;13496;51.040;13.680;2023-02-18T07:37:27;0.80;;;0.80;;
25637;SDS011;13496;51.040;13.680;2023-02-18T07:42:28;0.70;;;0.70;;
25637;SDS011;13496;51.040;13.680;2023-02-18T07:47:30;0.83;;;0.83;;
25637;SDS011;13496;51.040;13.680;2023-02-18T07:52:32;0.70;;;0.70;;
25637;SDS011;13496;51.040;13.680;2023-02-18T07:57:33;1.20;;;1.00;;
25637;SDS011;13496;51.040;13.680;2023-02-18T08:02:55;1.13;;;1.00;;
25637;SDS011;13496;51.040;13.680;2023-02-18T08:07:57;0.83;;;0.83;;
25637;SDS011;13496;51.040;13.680;2023-02-18T08:12:58;0.83;;;0.83;;
25637;SDS011;13496;51.040;13.680;2023-02-18T08:18:00;1.33;;;0.80;;
25637;SDS011;13496;51.040;13.680;2023-02-18T08:23:02;1.37;;;0.90;;
25637;SDS011;13496;51.040;13.680;2023-02-18T08:28:04;0.60;;;0.60;;
25637;SDS011;13496;51.040;13.680;2023-02-18T08:33:06;1.90;;;0.90;;
25637;SDS011;13496;51.040;13.680;2023-02-18T08:38:08;1.13;;;0.80;;
25637;SDS011;13496;51.040;13.680;2023-02-18T08:43:10;0.80;;;0.80;;
25637;SDS011;13496;51.040;13.680;2023-02-18T08:48:12;1.53;;;0.97;;
25637;SDS011;13496;51.040;13.680;2023-02-18T08:53:15;0.90;;;0.80;;
25637;SDS011;13496;51.040;13.680;2023-02-18T08:58:17;0.70;;;0.70;;
25637;SDS011;13496;51.040;13.680;2023-02-18T09:03:18;1.43;;;0.70;;
25637;SDS011;13496;51.040;13.680;2023-02-18T09:08:20;0.80;;;0.80;;
25637;SDS011;13496;51.040;13.680;2023-02-18T09:13:22;0.93;;;0.77;;
25637;SDS011;13496;51.040;13.680;2023-02-18T09:18:24;1.33;;;1.03;;
25637;SDS011;13496;51.040;13.680;2023-02-18T09:23:27;0.80;;;0.80;;
25637;SDS011;13496;51.040;13.680;2023-02-18T09:28:30;1.10;;;0.80;;
25637;SDS011;13496;51.040;13.680;2023-02-18T09:33:33;1.00;;;0.80;;
25637;SDS011;13496;51.040;13.680;2023-02-18T09:38:36;0.73;;;0.73;;
25637;SDS011;13496;51.040;13.680;2023-02-18T09:43:39;1.00;;;0.90;;
25637;SDS011;13496;51.040;13.680;2023-02-18T09:48:44;0.70;;;0.70;;
25637;SDS011;13496;51.040;13.680;2023-02-18T09:53:48;0.70;;;0.70;;
25637;SDS011;13496;51.040;13.680;2023-02-18T09:58:49;0.70;;;0.70;;
25637;SDS011;13496;51.040;13.680;2023-02-18T10:03:52;1.57;;;0.90;;
25637;SDS011;13496;51.040;13.680;2023-02-18T10:08:56;0.93;;;0.80;;
25637;SDS011;13496;51.040;13.680;2023-02-18T10:14:05;0.93;;;0.70;;
25637;SDS011;13496;51.040;13.680;2023-02-18T10:19:18;1.27;;;0.80;;
25637;SDS011;13496;51.040;13.680;2023-02-18T10:24:30;0.60;;;0.60;;
25637;SDS011;13496;51.040;13.680;2023-02-18T10:29:35;0.90;;;0.87;;
25637;SDS011;13496;51.040;13.680;2023-02-18T10:45:12;0.50;;;0.50;;
25637;SDS011;13496;51.040;13.680;2023-02-18T10:50:28;0.70;;;0.70;;
25637;SDS011;13496;51.040;13.680;2023-02-18T10:55:42;0.80;;;0.80;;
25637;SDS011;13496;51.040;13.680;2023-02-18T11:00:46;1.00;;;0.80;;
25637;SDS011;13496;51.040;13.680;2023-02-18T11:05:52;0.70;;;0.70;;
25637;SDS011;13496;51.040;13.680;2023-02-18T11:10:56;0.40;;;0.40;;
25637;SDS011;13496;51.040;13.680;2023-02-18T11:15:59;0.63;;;0.63;;
25637;SDS011;13496;51.040;13.680;2023-02-18T11:26:27;0.70;;;0.50;;
25637;SDS011;13496;51.040;13.680;2023-02-18T11:31:38;0.77;;;0.77;;
25637;SDS011;13496;51.040;13.680;2023-02-18T11:36:45;1.07;;;0.80;;
25637;SDS011;13496;51.040;13.680;2023-02-18T11:41:53;0.60;;;0.60;;
25637;SDS011;13496;51.040;13.680;2023-02-18T11:52:18;0.53;;;0.53;;
25637;SDS011;13496;51.040;13.680;2023-02-18T11:57:24;0.80;;;0.80;;
25637;SDS011;13496;51.040;13.680;2023-02-18T12:07:38;0.70;;;0.70;;
25637;SDS011;13496;51.040;13.680;2023-02-18T12:12:46;0.50;;;0.50;;
25637;SDS011;13496;51.040;13.680;2023-02-18T12:23:22;0.73;;;0.60;;
25637;SDS011;13496;51.040;13.680;2023-02-18T12:28:53;0.60;;;0.60;;
25637;SDS011;13496;51.040;13.680;2023-02-18T12:34:33;0.50;;;0.50;;
25637;SDS011;13496;51.040;13.680;2023-02-18T12:50:01;0.70;;;0.70;;
25637;SDS011;13496;51.040;13.680;2023-02-18T12:55:40;0.63;;;0.63;;
25637;SDS011;13496;51.040;13.680;2023-02-18T13:17:08;0.40;;;0.40;;
25637;SDS011;13496;51.040;13.680;2023-02-18T13:22:11;0.83;;;0.60;;
25637;SDS011;13496;51.040;13.680;2023-02-18T13:27:20;0.60;;;0.60;;
25637;SDS011;13496;51.040;13.680;2023-02-18T13:32:58;0.50;;;0.50;;
25637;SDS011;13496;51.040;13.680;2023-02-18T13:38:19;0.67;;;0.67;;
25637;SDS011;13496;51.040;13.680;2023-02-18T13:43:50;0.67;;;0.67;;
25637;SDS011;13496;51.040;13.680;2023-02-18T13:54:04;0.90;;;0.90;;
25637;SDS011;13496;51.040;13.680;2023-02-18T13:59:18;1.20;;;1.20;;
25637;SDS011;13496;51.040;13.680;2023-02-18T14:04:34;1.07;;;1.07;;
25637;SDS011;13496;51.040;13.680;2023-02-18T14:09:42;1.57;;;1.30;;
25637;SDS011;13496;51.040;13.680;2023-02-18T14:14:46;1.93;;;1.40;;
25637;SDS011;13496;51.040;13.680;2023-02-18T14:25:03;1.30;;;1.23;;
25637;SDS011;13496;51.040;13.680;2023-02-18T14:35:29;1.90;;;1.80;;
25637;SDS011;13496;51.040;13.680;2023-02-18T14:51:03;14.83;;;13.27;;
25637;SDS011;13496;51.040;13.680;2023-02-18T14:56:06;19.00;;;16.80;;
25637;SDS011;13496;51.040;13.680;2023-02-18T15:06:30;84.93;;;75.80;;
25637;SDS011;13496;51.040;13.680;2023-02-18T15:11:38;84.30;;;75.03;;
25637;SDS011;13496;51.040;13.680;2023-02-18T15:16:44;83.87;;;74.73;;
25637;SDS011;13496;51.040;13.680;2023-02-18T15:21:48;95.47;;;85.33;;
25637;SDS011;13496;51.040;13.680;2023-02-18T15:26:51;87.40;;;78.07;;
25637;SDS011;13496;51.040;13.680;2023-02-18T15:31:55;62.77;;;56.23;;
25637;SDS011;13496;51.040;13.680;2023-02-18T15:36:58;75.50;;;67.67;;
25637;SDS011;13496;51.040;13.680;2023-02-18T15:42:07;80.10;;;71.67;;
25637;SDS011;13496;51.040;13.680;2023-02-18T15:47:14;84.60;;;75.80;;
25637;SDS011;13496;51.040;13.680;2023-02-18T15:52:21;83.83;;;75.10;;
25637;SDS011;13496;51.040;13.680;2023-02-18T15:57:25;92.20;;;82.80;;
25637;SDS011;13496;51.040;13.680;2023-02-18T16:02:31;97.47;;;87.53;;
25637;SDS011;13496;51.040;13.680;2023-02-18T16:07:47;91.23;;;81.73;;
25637;SDS011;13496;51.040;13.680;2023-02-18T16:12:51;94.73;;;85.33;;
25637;SDS011;13496;51.040;13.680;2023-02-18T16:17:55;96.43;;;86.90;;
25637;SDS011;13496;51.040;13.680;2023-02-18T16:22:59;98.33;;;88.60;;
25637;SDS011;13496;51.040;13.680;2023-02-18T16:28:23;95.63;;;86.27;;
25637;SDS011;13496;51.040;13.680;2023-02-18T16:33:28;78.77;;;70.70;;
25637;SDS011;13496;51.040;13.680;2023-02-18T16:38:29;74.17;;;66.77;;
25637;SDS011;13496;51.040;13.680;2023-02-18T16:43:31;119.13;;;106.90;;
25637;SDS011;13496;51.040;13.680;2023-02-18T16:48:40;105.43;;;94.53;;
25637;SDS011;13496;51.040;13.680;2023-02-18T16:53:43;103.27;;;92.87;;
25637;SDS011;13496;51.040;13.680;2023-02-18T16:58:45;106.40;;;95.67;;
25637;SDS011;13496;51.040;13.680;2023-02-18T17:03:47;105.43;;;94.60;;
25637;SDS011;13496;51.040;13.680;2023-02-18T17:08:49;101.13;;;90.97;;
25637;SDS011;13496;51.040;13.680;2023-02-18T17:13:52;100.83;;;90.77;;
25637;SDS011;13496;51.040;13.680;2023-02-18T17:18:54;96.40;;;86.63;;
25637;SDS011;13496;51.040;13.680;2023-02-18T17:23:56;85.73;;;77.13;;
25637;SDS011;13496;51.040;13.680;2023-02-18T17:28:58;86.53;;;77.87;;
25637;SDS011;13496;51.040;13.680;2023-02-18T17:34:02;101.23;;;91.23;;
25637;SDS011;13496;51.040;13.680;2023-02-18T17:39:09;78.93;;;71.10;;
25637;SDS011;13496;51.040;13.680;2023-02-18T17:44:14;77.33;;;69.50;;
25637;SDS011;13496;51.040;13.680;2023-02-18T17:49:17;63.37;;;56.93;;
25637;SDS011;13496;51.040;13.680;2023-02-18T17:54:19;69.43;;;62.47;;
25637;SDS011;13496;51.040;13.680;2023-02-18T17:59:22;61.90;;;55.37;;
25637;SDS011;13496;51.040;13.680;2023-02-18T18:04:24;64.60;;;57.23;;
25637;SDS011;13496;51.040;13.680;2023-02-18T18:09:26;64.40;;;57.03;;
25637;SDS011;13496;51.040;13.680;2023-02-18T18:14:27;53.47;;;48.17;;
25637;SDS011;13496;51.040;13.680;2023-02-18T18:19:29;52.67;;;47.23;;
25637;SDS011;13496;51.040;13.680;2023-02-18T18:24:32;59.40;;;53.10;;
25637;SDS011;13496;51.040;13.680;2023-02-18T18:29:34;50.50;;;45.17;;
25637;SDS011;13496;51.040;13.680;2023-02-18T18:34:35;44.63;;;39.93;;
25637;SDS011;13496;51.040;13.680;2023-02-18T18:39:37;47.17;;;41.00;;
25637;SDS011;13496;51.040;13.680;2023-02-18T18:44:38;48.93;;;44.10;;
25637;SDS011;13496;51.040;13.680;2023-02-18T18:49:41;49.97;;;44.93;;
25637;SDS011;13496;51.040;13.680;2023-02-18T18:54:42;43.90;;;39.10;;
25637;SDS011;13496;51.040;13.680;2023-02-18T18:59:44;43.73;;;39.37;;
25637;SDS011;13496;51.040;13.680;2023-02-18T19:04:46;38.03;;;34.17;;
25637;SDS011;13496;51.040;13.680;2023-02-18T19:09:47;43.07;;;38.57;;
25637;SDS011;13496;51.040;13.680;2023-02-18T19:14:49;40.03;;;36.03;;
25637;SDS011;13496;51.040;13.680;2023-02-18T19:19:50;39.80;;;35.80;;
25637;SDS011;13496;51.040;13.680;2023-02-18T19:24:52;36.80;;;33.00;;
25637;SDS011;13496;51.040;13.680;2023-02-18T19:29:54;35.40;;;32.00;;
25637;SDS011;13496;51.040;13.680;2023-02-18T19:34:56;33.93;;;30.63;;
25637;SDS011;13496;51.040;13.680;2023-02-18T19:39:58;29.40;;;26.30;;
25637;SDS011;13496;51.040;13.680;2023-02-18T19:45:00;33.23;;;29.97;;
25637;SDS011;13496;51.040;13.680;2023-02-18T19:50:02;31.13;;;27.97;;
25637;SDS011;13496;51.040;13.680;2023-02-18T19:55:05;28.40;;;25.50;;
25637;SDS011;13496;51.040;13.680;2023-02-18T20:00:07;27.73;;;25.03;;
25637;SDS011;13496;51.040;13.680;2023-02-18T20:05:14;29.30;;;26.33;;
25637;SDS011;13496;51.040;13.680;2023-02-18T20:10:16;27.50;;;24.80;;
25637;SDS011;13496;51.040;13.680;2023-02-18T20:15:20;25.33;;;22.60;;
25637;SDS011;13496;51.040;13.680;2023-02-18T20:20:22;24.37;;;21.93;;
25637;SDS011;13496;51.040;13.680;2023-02-18T20:25:24;23.63;;;21.33;;
25637;SDS011;13496;51.040;13.680;2023-02-18T20:30:27;23.90;;;21.50;;
25637;SDS011;13496;51.040;13.680;2023-02-18T20:35:28;23.83;;;21.63;;
25637;SDS011;13496;51.040;13.680;2023-02-18T20:40:30;23.10;;;20.80;;
25637;SDS011;13496;51.040;13.680;2023-02-18T20:45:32;21.97;;;19.87;;
25637;SDS011;13496;51.040;13.680;2023-02-18T20:50:33;19.30;;;17.43;;
25637;SDS011;13496;51.040;13.680;2023-02-18T20:55:35;20.10;;;18.20;;
25637;SDS011;13496;51.040;13.680;2023-02-18T21:00:37;16.87;;;15.27;;
25637;SDS011;13496;51.040;13.680;2023-02-18T21:05:38;17.80;;;16.03;;
25637;SDS011;13496;51.040;13.680;2023-02-18T21:10:40;18.17;;;16.47;;
25637;SDS011;13496;51.040;13.680;2023-02-18T21:15:41;17.63;;;15.90;;
25637;SDS011;13496;51.040;13.680;2023-02-18T21:20:43;16.50;;;14.90;;
25637;SDS011;13496;51.040;13.680;2023-02-18T21:25:45;15.13;;;13.73;;
25637;SDS011;13496;51.040;13.680;2023-02-18T21:30:48;15.10;;;13.70;;
25637;SDS011;13496;51.040;13.680;2023-02-18T21:35:50;16.73;;;15.23;;
25637;SDS011;13496;51.040;13.680;2023-02-18T21:40:52;15.00;;;13.50;;
25637;SDS011;13496;51.040;13.680;2023-02-18T21:45:53;14.37;;;13.03;;
25637;SDS011;13496;51.040;13.680;2023-02-18T21:50:58;15.37;;;13.87;;
25637;SDS011;13496;51.040;13.680;2023-02-18T21:56:10;13.40;;;12.10;;
25637;SDS011;13496;51.040;13.680;2023-02-18T22:01:12;13.73;;;12.53;;
25637;SDS011;13496;51.040;13.680;2023-02-18T22:06:14;13.70;;;12.33;;
25637;SDS011;13496;51.040;13.680;2023-02-18T22:11:16;12.97;;;11.77;;
25637;SDS011;13496;51.040;13.680;2023-02-18T22:16:17;12.73;;;11.53;;
25637;SDS011;13496;51.040;13.680;2023-02-18T22:21:19;12.30;;;11.20;;
25637;SDS011;13496;51.040;13.680;2023-02-18T22:26:21;12.47;;;11.33;;
25637;SDS011;13496;51.040;13.680;2023-02-18T22:31:23;11.90;;;10.80;;
25637;SDS011;13496;51.040;13.680;2023-02-18T22:36:27;11.43;;;10.33;;
25637;SDS011;13496;51.040;13.680;2023-02-18T22:41:29;10.70;;;9.77;;
25637;SDS011;13496;51.040;13.680;2023-02-18T22:46:33;10.67;;;9.67;;
25637;SDS011;13496;51.040;13.680;2023-02-18T22:51:37;10.37;;;9.43;;
25637;SDS011;13496;51.040;13.680;2023-02-18T22:56:41;10.67;;;9.67;;
25637;SDS011;13496;51.040;13.680;2023-02-18T23:01:45;10.70;;;9.70;;
25637;SDS011;13496;51.040;13.680;2023-02-18T23:06:53;10.30;;;9.30;;
25637;SDS011;13496;51.040;13.680;2023-02-18T23:11:55;9.90;;;8.90;;
25637;SDS011;13496;51.040;13.680;2023-02-18T23:17:01;9.33;;;8.43;;
25637;SDS011;13496;51.040;13.680;2023-02-18T23:22:14;9.60;;;8.70;;
25637;SDS011;13496;51.040;13.680;2023-02-18T23:27:17;8.23;;;7.50;;
25637;SDS011;13496;51.040;13.680;2023-02-18T23:32:19;8.70;;;7.90;;
25637;SDS011;13496;51.040;13.680;2023-02-18T23:37:21;8.70;;;7.90;;
25637;SDS011;13496;51.040;13.680;2023-02-18T23:42:42;8.80;;;8.00;;
25637;SDS011;13496;51.040;13.680;2023-02-18T23:47:44;9.20;;;8.30;;
25637;SDS011;13496;51.040;13.680;2023-02-18T23:52:46;8.13;;;7.33;;
25637;SDS011;13496;51.040;13.680;2023-02-18T23:57:49;7.93;;;7.07;;
